createdAt,value
2023-12-14T00:00:46.769Z,20.20
2023-12-14T00:01:46.750Z,23.50
2023-12-14T00:02:46.714Z,19.20
2023-12-14T00:03:46.780Z,22.80
2023-12-14T00:04:46.704Z,20.20
2023-12-14T00:05:46.719Z,19.50
2023-12-14T00:06:46.668Z,27.30
2023-12-14T00:07:46.684Z,20.50
2023-12-14T00:08:46.662Z,20.70
2023-12-14T00:09:46.635Z,19.90
2023-12-14T00:10:46.642Z,19.50
2023-12-14T00:11:46.615Z,18.90
2023-12-14T00:12:46.614Z,17.80
2023-12-14T00:13:46.653Z,17.40
2023-12-14T00:14:46.591Z,17.20
2023-12-14T00:15:46.576Z,17.90
2023-12-14T00:16:46.603Z,18.30
2023-12-14T00:17:46.578Z,18.50
2023-12-14T00:18:46.584Z,16.20
2023-12-14T00:19:46.596Z,16.60
2023-12-14T00:20:46.516Z,18.20
2023-12-14T00:21:46.511Z,17.90
2023-12-14T00:22:46.541Z,17.40
2023-12-14T00:23:46.488Z,17.20
2023-12-14T00:24:46.480Z,17.90
2023-12-14T00:25:46.541Z,17.60
2023-12-14T00:26:46.469Z,18.50
2023-12-14T00:27:46.453Z,18.80
2023-12-14T00:28:46.488Z,19.10
2023-12-14T00:29:46.421Z,19.40
2023-12-14T00:30:46.490Z,19.60
2023-12-14T00:31:46.446Z,18.60
2023-12-14T00:32:46.438Z,19.50
2023-12-14T00:33:46.456Z,19.70
2023-12-14T00:34:46.413Z,19.20
2023-12-14T00:35:46.359Z,18.40
2023-12-14T00:36:46.371Z,19.20
2023-12-14T00:37:46.370Z,18.00
2023-12-14T00:38:46.325Z,17.60
2023-12-14T00:39:46.317Z,16.80
2023-12-14T00:40:46.386Z,17.10
2023-12-14T00:41:46.306Z,17.60
2023-12-14T00:42:46.280Z,17.50
2023-12-14T00:43:46.293Z,18.90
2023-12-14T00:44:46.262Z,17.00
2023-12-14T00:45:46.261Z,18.50
2023-12-14T00:46:46.273Z,17.30
2023-12-14T00:47:46.251Z,18.40
2023-12-14T00:48:46.252Z,17.10
2023-12-14T00:49:46.260Z,18.10
2023-12-14T00:50:46.222Z,17.70
2023-12-14T00:51:46.190Z,17.60
2023-12-14T00:52:46.195Z,17.00
2023-12-14T00:53:46.165Z,19.80
2023-12-14T00:54:46.166Z,18.90
2023-12-14T00:55:46.192Z,18.40
2023-12-14T00:56:46.142Z,18.10
2023-12-14T00:57:46.122Z,18.10
2023-12-14T00:58:46.163Z,18.10
2023-12-14T00:59:46.232Z,17.20
2023-12-14T01:00:46.092Z,17.60
2023-12-14T01:01:46.135Z,18.30
2023-12-14T01:02:46.098Z,17.90
2023-12-14T01:03:46.073Z,18.80
2023-12-14T01:04:46.089Z,17.60
2023-12-14T01:05:46.072Z,17.10
2023-12-14T01:06:46.030Z,17.90
2023-12-14T01:07:46.089Z,17.40
2023-12-14T01:08:46.011Z,18.10
2023-12-14T01:09:46.012Z,18.40
2023-12-14T01:10:46.038Z,17.50
2023-12-14T01:11:45.972Z,18.30
2023-12-14T01:12:45.964Z,18.50
2023-12-14T01:13:46.029Z,18.40
2023-12-14T01:14:45.965Z,17.70
2023-12-14T01:15:45.932Z,18.70
2023-12-14T01:16:45.936Z,17.50
2023-12-14T01:17:45.987Z,19.20
2023-12-14T01:18:46.003Z,17.70
2023-12-14T01:19:45.910Z,17.20
2023-12-14T01:20:45.878Z,18.10
2023-12-14T01:21:45.875Z,16.80
2023-12-14T01:22:45.977Z,17.90
2023-12-14T01:23:45.862Z,16.60
2023-12-14T01:24:45.836Z,17.50
2023-12-14T01:25:45.848Z,17.40
2023-12-14T01:26:45.813Z,17.50
2023-12-14T01:27:45.807Z,17.30
2023-12-14T01:28:45.825Z,19.20
2023-12-14T01:29:45.784Z,17.50
2023-12-14T01:30:45.804Z,18.60
2023-12-14T01:31:45.836Z,19.00
2023-12-14T01:32:45.800Z,18.50
2023-12-14T01:33:45.783Z,17.10
2023-12-14T01:34:45.754Z,18.40
2023-12-14T01:35:45.715Z,17.40
2023-12-14T01:36:45.704Z,17.90
2023-12-14T01:37:45.769Z,19.30
2023-12-14T01:38:45.682Z,20.10
2023-12-14T01:39:45.683Z,17.60
2023-12-14T01:40:45.712Z,18.30
2023-12-14T01:41:45.657Z,18.30
2023-12-14T01:42:45.651Z,18.30
2023-12-14T01:43:45.650Z,17.60
2023-12-14T01:44:45.632Z,17.30
2023-12-14T01:45:45.623Z,19.60
2023-12-14T01:46:45.628Z,19.00
2023-12-14T01:47:45.640Z,18.30
2023-12-14T01:48:45.652Z,19.10
2023-12-14T01:49:45.626Z,18.10
2023-12-14T01:50:45.569Z,18.00
2023-12-14T01:51:45.558Z,19.10
2023-12-14T01:52:45.587Z,18.30
2023-12-14T01:53:45.541Z,18.10
2023-12-14T01:54:45.535Z,17.70
2023-12-14T01:55:45.542Z,18.30
2023-12-14T01:56:45.510Z,18.40
2023-12-14T01:57:45.488Z,18.70
2023-12-14T01:58:45.485Z,18.70
2023-12-14T01:59:45.470Z,18.80
2023-12-14T02:00:45.505Z,18.10
2023-12-14T02:01:45.517Z,18.10
2023-12-14T02:02:45.436Z,16.70
2023-12-14T02:03:45.487Z,18.40
2023-12-14T02:04:45.431Z,17.90
2023-12-14T02:05:45.459Z,18.20
2023-12-14T02:06:45.397Z,18.10
2023-12-14T02:07:45.430Z,18.30
2023-12-14T02:08:45.379Z,18.20
2023-12-14T02:09:45.424Z,19.50
2023-12-14T02:10:45.414Z,17.50
2023-12-14T02:11:45.388Z,18.50
2023-12-14T02:12:45.341Z,18.40
2023-12-14T02:13:45.365Z,18.50
2023-12-14T02:14:45.320Z,18.80
2023-12-14T02:15:45.337Z,18.60
2023-12-14T02:16:45.322Z,18.60
2023-12-14T02:17:45.335Z,19.00
2023-12-14T02:18:45.408Z,18.00
2023-12-14T02:19:46.487Z,18.80
2023-12-14T02:20:46.445Z,18.20
2023-12-14T02:21:46.383Z,18.00
2023-12-14T02:22:46.391Z,18.30
2023-12-14T02:23:46.426Z,17.70
2023-12-14T02:24:46.442Z,19.10
2023-12-14T02:25:46.370Z,17.60
2023-12-14T02:27:01.855Z,18.20
2023-12-14T02:27:47.319Z,18.70
2023-12-14T02:28:46.388Z,17.90
2023-12-14T02:29:46.330Z,17.90
2023-12-14T02:30:46.311Z,17.10
2023-12-14T02:31:46.344Z,17.20
2023-12-14T02:32:46.352Z,17.70
2023-12-14T02:33:46.339Z,17.50
2023-12-14T02:34:46.346Z,17.80
2023-12-14T02:35:46.298Z,17.90
2023-12-14T02:36:46.272Z,17.30
2023-12-14T02:37:46.357Z,18.00
2023-12-14T02:38:46.348Z,18.80
2023-12-14T02:39:46.267Z,17.60
2023-12-14T02:40:46.233Z,16.80
2023-12-14T02:41:46.237Z,17.70
2023-12-14T02:42:46.235Z,17.80
2023-12-14T02:43:46.276Z,17.20
2023-12-14T02:44:46.222Z,17.50
2023-12-14T02:45:46.172Z,17.20
2023-12-14T02:46:46.227Z,17.00
2023-12-14T02:47:46.189Z,16.80
2023-12-14T02:48:46.200Z,18.00
2023-12-14T02:49:46.213Z,17.90
2023-12-14T02:50:46.141Z,18.00
2023-12-14T02:51:46.134Z,18.00
2023-12-14T02:52:46.148Z,16.90
2023-12-14T02:53:46.115Z,16.70
2023-12-14T02:54:46.106Z,17.40
2023-12-14T02:55:46.097Z,17.40
2023-12-14T02:56:46.073Z,16.90
2023-12-14T02:57:46.125Z,17.10
2023-12-14T02:58:46.132Z,16.80
2023-12-14T02:59:46.047Z,16.50
2023-12-14T03:00:46.067Z,17.00
2023-12-14T03:01:46.064Z,17.10
2023-12-14T03:02:46.031Z,16.60
2023-12-14T03:03:46.082Z,17.10
2023-12-14T03:04:46.017Z,17.50
2023-12-14T03:05:46.011Z,16.80
2023-12-14T03:06:45.948Z,16.80
2023-12-14T03:07:45.991Z,17.00
2023-12-14T03:08:45.950Z,17.20
2023-12-14T03:09:46.081Z,16.70
2023-12-14T03:10:46.032Z,15.70
2023-12-14T03:11:45.959Z,16.70
2023-12-14T03:12:45.917Z,16.40
2023-12-14T03:13:45.967Z,16.50
2023-12-14T03:14:45.924Z,17.40
2023-12-14T03:15:45.893Z,16.30
2023-12-14T03:16:45.898Z,16.10
2023-12-14T03:17:46.921Z,16.60
2023-12-14T03:18:45.898Z,17.40
2023-12-14T03:19:45.881Z,16.80
2023-12-14T03:20:45.836Z,16.20
2023-12-14T03:21:45.853Z,16.70
2023-12-14T03:22:45.849Z,15.90
2023-12-14T03:23:45.805Z,16.70
2023-12-14T03:24:45.769Z,15.60
2023-12-14T03:25:45.810Z,17.00
2023-12-14T03:26:45.788Z,17.00
2023-12-14T03:27:45.778Z,17.40
2023-12-14T03:28:45.794Z,18.00
2023-12-14T03:29:45.762Z,16.90
2023-12-14T03:30:45.815Z,16.60
2023-12-14T03:31:45.747Z,17.20
2023-12-14T03:32:45.763Z,16.80
2023-12-14T03:33:45.820Z,17.60
2023-12-14T03:34:45.707Z,16.00
2023-12-14T03:35:45.762Z,15.70
2023-12-14T03:36:45.668Z,16.10
2023-12-14T03:37:45.752Z,15.40
2023-12-14T03:38:45.659Z,15.70
2023-12-14T03:39:45.669Z,15.70
2023-12-14T03:40:45.655Z,14.80
2023-12-14T03:41:45.620Z,14.70
2023-12-14T03:42:45.636Z,15.40
2023-12-14T03:43:45.661Z,15.30
2023-12-14T03:44:45.625Z,14.70
2023-12-14T03:45:45.600Z,15.10
2023-12-14T03:46:45.630Z,14.20
2023-12-14T03:47:45.655Z,13.60
2023-12-14T03:48:45.593Z,14.40
2023-12-14T03:49:45.565Z,14.80
2023-12-14T03:50:45.571Z,14.00
2023-12-14T03:51:45.528Z,14.60
2023-12-14T03:52:45.532Z,14.00
2023-12-14T03:53:45.554Z,14.30
2023-12-14T03:54:45.573Z,15.20
2023-12-14T03:55:45.525Z,14.70
2023-12-14T03:56:45.454Z,14.20
2023-12-14T03:57:45.476Z,14.90
2023-12-14T03:58:45.492Z,15.70
2023-12-14T03:59:45.449Z,14.40
2023-12-14T04:00:45.442Z,15.80
2023-12-14T04:01:45.434Z,15.80
2023-12-14T04:02:45.443Z,15.40
2023-12-14T04:03:45.425Z,15.50
2023-12-14T04:04:45.440Z,14.80
2023-12-14T04:05:45.454Z,15.10
2023-12-14T04:06:45.377Z,15.00
2023-12-14T04:07:45.482Z,16.30
2023-12-14T04:08:45.369Z,16.20
2023-12-14T04:09:45.375Z,15.70
2023-12-14T04:10:45.366Z,16.10
2023-12-14T04:11:45.327Z,15.50
2023-12-14T04:12:45.341Z,15.70
2023-12-14T04:13:45.383Z,16.00
2023-12-14T04:14:45.311Z,16.00
2023-12-14T04:15:45.323Z,17.10
2023-12-14T04:16:45.334Z,15.60
2023-12-14T04:17:45.430Z,16.40
2023-12-14T04:18:45.391Z,16.30
2023-12-14T04:19:45.326Z,16.30
2023-12-14T04:20:45.284Z,15.60
2023-12-14T04:21:45.246Z,14.90
2023-12-14T04:22:45.407Z,14.30
2023-12-14T04:23:45.222Z,15.00
2023-12-14T04:24:45.222Z,14.60
2023-12-14T04:25:45.200Z,14.70
2023-12-14T04:26:45.198Z,16.30
2023-12-14T04:27:45.175Z,16.30
2023-12-14T04:28:45.322Z,16.00
2023-12-14T04:29:45.178Z,15.80
2023-12-14T04:30:45.176Z,16.40
2023-12-14T04:31:45.158Z,16.40
2023-12-14T04:32:45.195Z,16.60
2023-12-14T04:33:45.143Z,16.00
2023-12-14T04:34:45.176Z,16.20
2023-12-14T04:35:45.105Z,15.10
2023-12-14T04:36:45.107Z,14.90
2023-12-14T04:37:45.135Z,15.20
2023-12-14T04:38:45.132Z,14.60
2023-12-14T04:39:45.035Z,14.70
2023-12-14T04:40:45.106Z,14.80
2023-12-14T04:41:45.067Z,15.50
2023-12-14T04:42:45.018Z,14.70
2023-12-14T04:43:45.067Z,14.20
2023-12-14T04:44:45.009Z,15.30
2023-12-14T04:45:45.047Z,15.40
2023-12-14T04:46:45.069Z,14.90
2023-12-14T04:47:45.019Z,15.10
2023-12-14T04:48:45.068Z,14.60
2023-12-14T04:49:45.044Z,13.70
2023-12-14T04:50:44.962Z,14.50
2023-12-14T04:51:44.957Z,14.70
2023-12-14T04:52:44.980Z,15.70
2023-12-14T04:53:44.897Z,15.90
2023-12-14T04:54:44.910Z,14.80
2023-12-14T04:55:46.189Z,15.50
2023-12-14T04:56:44.937Z,14.80
2023-12-14T04:57:44.911Z,14.70
2023-12-14T04:58:44.883Z,15.00
2023-12-14T04:59:44.866Z,14.10
2023-12-14T05:00:44.871Z,14.90
2023-12-14T05:01:44.878Z,15.30
2023-12-14T05:02:44.834Z,14.30
2023-12-14T05:03:44.831Z,15.20
2023-12-14T05:04:44.823Z,13.70
2023-12-14T05:05:44.849Z,14.00
2023-12-14T05:06:44.803Z,14.80
2023-12-14T05:07:44.811Z,15.90
2023-12-14T05:08:44.780Z,15.40
2023-12-14T05:09:44.818Z,13.80
2023-12-14T05:10:44.797Z,15.10
2023-12-14T05:11:44.733Z,14.70
2023-12-14T05:12:44.708Z,13.80
2023-12-14T05:13:44.723Z,15.00
2023-12-14T05:14:44.923Z,14.50
2023-12-14T05:15:44.714Z,15.60
2023-12-14T05:16:44.722Z,15.60
2023-12-14T05:17:44.704Z,15.90
2023-12-14T05:18:44.713Z,15.30
2023-12-14T05:19:44.698Z,14.60
2023-12-14T05:20:44.646Z,15.00
2023-12-14T05:21:44.641Z,15.80
2023-12-14T05:22:44.623Z,14.20
2023-12-14T05:23:44.605Z,15.40
2023-12-14T05:24:44.610Z,15.80
2023-12-14T05:25:44.608Z,16.20
2023-12-14T05:26:44.585Z,15.10
2023-12-14T05:27:44.580Z,14.80
2023-12-14T05:28:45.547Z,15.50
2023-12-14T05:29:44.601Z,15.30
2023-12-14T05:30:44.590Z,15.50
2023-12-14T05:31:44.585Z,15.90
2023-12-14T05:32:44.638Z,16.60
2023-12-14T05:33:44.670Z,16.00
2023-12-14T05:34:44.562Z,16.30
2023-12-14T05:35:44.491Z,17.90
2023-12-14T05:36:44.495Z,17.20
2023-12-14T05:37:44.555Z,16.90
2023-12-14T05:38:44.483Z,16.50
2023-12-14T05:39:44.474Z,16.20
2023-12-14T05:40:44.453Z,17.10
2023-12-14T05:41:44.465Z,16.60
2023-12-14T05:42:44.457Z,17.30
2023-12-14T05:43:44.461Z,16.70
2023-12-14T05:44:44.432Z,16.30
2023-12-14T05:45:44.453Z,16.40
2023-12-14T05:46:44.438Z,17.30
2023-12-14T05:47:44.489Z,16.90
2023-12-14T05:48:44.392Z,16.50
2023-12-14T05:49:44.447Z,16.20
2023-12-14T05:50:44.343Z,16.10
2023-12-14T05:51:44.348Z,16.20
2023-12-14T05:52:44.398Z,17.20
2023-12-14T05:53:44.358Z,17.60
2023-12-14T05:54:44.313Z,17.30
2023-12-14T05:55:44.318Z,16.60
2023-12-14T05:56:44.312Z,16.90
2023-12-14T05:57:44.291Z,16.60
2023-12-14T05:58:44.290Z,15.80
2023-12-14T05:59:44.246Z,15.90
2023-12-14T06:00:44.273Z,15.60
2023-12-14T06:01:44.450Z,16.00
2023-12-14T06:02:44.401Z,16.70
2023-12-14T06:03:44.291Z,16.30
2023-12-14T06:04:45.102Z,16.70
2023-12-14T06:05:44.286Z,16.00
2023-12-14T06:06:44.207Z,15.00
2023-12-14T06:07:44.232Z,16.50
2023-12-14T06:08:44.154Z,16.30
2023-12-14T06:09:44.150Z,15.90
2023-12-14T06:10:44.232Z,17.70
2023-12-14T06:11:44.206Z,16.50
2023-12-14T06:12:44.127Z,18.70
2023-12-14T06:13:44.189Z,18.40
2023-12-14T06:14:44.091Z,26.70
2023-12-14T06:15:44.133Z,21.90
2023-12-14T06:16:44.140Z,24.40
2023-12-14T06:17:44.328Z,21.90
2023-12-14T06:18:44.180Z,18.90
2023-12-14T06:19:44.096Z,17.50
2023-12-14T06:20:44.079Z,18.70
2023-12-14T06:21:44.042Z,18.20
2023-12-14T06:22:44.051Z,16.60
2023-12-14T06:23:44.045Z,16.90
2023-12-14T06:24:44.025Z,16.00
2023-12-14T06:25:44.029Z,16.50
2023-12-14T06:26:43.992Z,17.00
2023-12-14T06:27:43.964Z,16.10
2023-12-14T06:28:44.025Z,16.80
2023-12-14T06:29:43.997Z,15.70
2023-12-14T06:30:44.044Z,15.10
2023-12-14T06:31:43.972Z,17.70
2023-12-14T06:32:43.970Z,17.80
2023-12-14T06:33:44.053Z,17.30
2023-12-14T06:34:43.947Z,17.40
2023-12-14T06:35:43.896Z,16.70
2023-12-14T06:36:43.870Z,16.80
2023-12-14T06:37:43.889Z,16.60
2023-12-14T06:38:43.844Z,15.00
2023-12-14T06:39:43.856Z,15.40
2023-12-14T06:40:43.853Z,15.90
2023-12-14T06:41:43.823Z,16.10
2023-12-14T06:42:44.840Z,15.50
2023-12-14T06:43:44.497Z,16.20
2023-12-14T06:44:43.803Z,15.70
2023-12-14T06:45:43.799Z,16.80
2023-12-14T06:46:43.792Z,15.80
2023-12-14T06:47:45.293Z,16.50
2023-12-14T06:48:44.574Z,16.00
2023-12-14T06:49:43.881Z,17.00
2023-12-14T06:50:45.941Z,17.50
2023-12-14T06:51:43.715Z,19.70
2023-12-14T06:52:43.913Z,20.10
2023-12-14T06:53:43.712Z,16.60
2023-12-14T06:54:43.691Z,15.60
2023-12-14T06:55:43.769Z,12.50
2023-12-14T06:56:43.662Z,11.50
2023-12-14T06:57:43.657Z,10.30
2023-12-14T06:58:43.746Z,8.10
2023-12-14T06:59:43.658Z,7.70
2023-12-14T07:00:43.649Z,8.70
2023-12-14T07:01:43.644Z,9.00
2023-12-14T07:02:43.606Z,8.50
2023-12-14T07:03:44.845Z,8.30
2023-12-14T07:06:35.441Z,9.40
2023-12-14T07:06:43.586Z,8.60
2023-12-14T07:07:43.626Z,8.00
2023-12-14T07:08:43.576Z,8.20
2023-12-14T07:09:43.583Z,7.20
2023-12-14T07:10:46.373Z,8.80
2023-12-14T07:11:44.553Z,10.00
2023-12-14T07:12:43.583Z,6.80
2023-12-14T07:13:43.501Z,5.20
2023-12-14T07:14:43.496Z,4.70
2023-12-14T07:15:43.474Z,5.30
2023-12-14T07:16:43.517Z,5.40
2023-12-14T07:17:43.602Z,5.60
2023-12-14T07:18:43.561Z,3.90
2023-12-14T07:19:43.497Z,4.30
2023-12-14T07:20:43.443Z,3.90
2023-12-14T07:21:43.438Z,3.40
2023-12-14T07:22:43.457Z,3.80
2023-12-14T07:23:43.434Z,4.00
2023-12-14T07:24:52.176Z,3.50
2023-12-14T07:25:45.426Z,4.10
2023-12-14T07:26:43.398Z,3.80
2023-12-14T07:27:43.362Z,3.90
2023-12-14T07:28:43.373Z,3.50
2023-12-14T07:29:43.333Z,3.40
2023-12-14T07:30:43.904Z,3.00
2023-12-14T07:31:43.365Z,3.20
2023-12-14T07:32:43.322Z,3.20
2023-12-14T07:33:43.360Z,3.20
2023-12-14T07:34:43.284Z,3.30
2023-12-14T07:35:43.284Z,3.30
2023-12-14T07:36:43.334Z,3.00
2023-12-14T07:37:43.285Z,2.90
2023-12-14T07:38:43.277Z,3.40
2023-12-14T07:39:43.236Z,2.90
2023-12-14T07:40:43.278Z,3.50
2023-12-14T07:41:43.216Z,3.70
2023-12-14T07:42:43.241Z,4.00
2023-12-14T07:43:43.302Z,3.50
2023-12-14T07:44:43.197Z,3.80
2023-12-14T07:45:43.192Z,3.30
2023-12-14T07:46:43.350Z,3.40
2023-12-14T07:47:43.225Z,2.80
2023-12-14T07:48:43.177Z,2.70
2023-12-14T07:49:43.222Z,3.00
2023-12-14T07:50:43.132Z,2.80
2023-12-14T07:51:43.115Z,2.60
2023-12-14T07:52:43.106Z,2.80
2023-12-14T07:53:43.125Z,2.70
2023-12-14T07:54:43.132Z,2.80
2023-12-14T07:55:43.088Z,3.40
2023-12-14T07:56:43.071Z,2.60
2023-12-14T07:57:43.107Z,2.60
2023-12-14T07:58:43.195Z,2.60
2023-12-14T07:59:43.110Z,2.70
2023-12-14T08:00:43.062Z,2.70
2023-12-14T08:01:43.032Z,2.90
2023-12-14T08:02:43.013Z,2.70
2023-12-14T08:03:43.052Z,2.40
2023-12-14T08:04:43.023Z,2.60
2023-12-14T08:05:43.022Z,2.80
2023-12-14T08:06:42.982Z,2.40
2023-12-14T08:07:43.061Z,2.70
2023-12-14T08:08:42.957Z,3.20
2023-12-14T08:09:42.914Z,4.40
2023-12-14T08:10:42.989Z,3.00
2023-12-14T08:11:42.945Z,2.40
2023-12-14T08:12:42.926Z,3.00
2023-12-14T08:13:42.938Z,2.70
2023-12-14T08:14:42.868Z,2.60
2023-12-14T08:15:42.854Z,2.90
2023-12-14T08:16:42.898Z,2.60
2023-12-14T08:17:42.911Z,2.30
2023-12-14T08:18:42.853Z,2.30
2023-12-14T08:19:42.829Z,2.80
2023-12-14T08:20:42.796Z,2.40
2023-12-14T08:21:42.804Z,2.70
2023-12-14T08:22:42.830Z,3.00
2023-12-14T08:23:42.781Z,3.00
2023-12-14T08:24:42.788Z,2.90
2023-12-14T08:25:42.823Z,2.90
2023-12-14T08:26:42.740Z,3.10
2023-12-14T08:27:42.753Z,3.00
2023-12-14T08:28:42.758Z,2.90
2023-12-14T08:29:42.671Z,4.70
2023-12-14T08:30:42.704Z,10.80
2023-12-14T08:31:42.777Z,7.90
2023-12-14T08:32:42.878Z,15.40
2023-12-14T08:33:43.212Z,8.80
2023-12-14T08:34:42.702Z,8.40
2023-12-14T08:35:42.676Z,7.70
2023-12-14T08:36:42.642Z,9.00
2023-12-14T08:37:42.691Z,9.80
2023-12-14T08:38:42.628Z,13.60
2023-12-14T08:39:42.590Z,8.30
2023-12-14T08:40:42.629Z,5.10
2023-12-14T08:41:42.652Z,4.40
2023-12-14T08:42:42.541Z,3.50
2023-12-14T08:43:42.615Z,3.50
2023-12-14T08:44:42.642Z,3.60
2023-12-14T08:45:47.293Z,9.00
2023-12-14T08:46:42.540Z,8.40
2023-12-14T08:47:42.645Z,6.90
2023-12-14T08:48:42.555Z,4.00
2023-12-14T08:49:42.512Z,3.40
2023-12-14T08:50:42.570Z,4.50
2023-12-14T08:51:45.525Z,8.60
2023-12-14T08:52:56.373Z,8.20
2023-12-14T08:53:54.265Z,6.80
2023-12-14T08:54:50.263Z,9.80
2023-12-14T08:55:59.876Z,6.30
2023-12-14T08:56:44.474Z,17.80
2023-12-14T08:57:42.453Z,10.50
2023-12-14T08:58:42.568Z,5.60
2023-12-14T08:59:44.482Z,4.60
2023-12-14T09:00:43.413Z,4.20
2023-12-14T09:01:42.471Z,5.80
2023-12-14T09:02:42.585Z,3.80
2023-12-14T09:03:42.369Z,12.70
2023-12-14T09:04:42.403Z,8.60
2023-12-14T09:05:42.394Z,17.20
2023-12-14T09:06:42.347Z,13.20
2023-12-14T09:07:42.386Z,11.60
2023-12-14T09:08:42.295Z,19.10
2023-12-14T09:09:42.326Z,23.90
2023-12-14T09:10:42.301Z,15.50
2023-12-14T09:11:42.284Z,5.60
2023-12-14T09:12:42.293Z,4.90
2023-12-14T09:13:42.298Z,4.70
2023-12-14T09:14:42.328Z,4.10
2023-12-14T09:15:42.218Z,4.60
2023-12-14T09:16:42.239Z,5.10
2023-12-14T09:17:42.616Z,5.60
2023-12-14T09:18:42.224Z,10.20
2023-12-14T09:19:42.190Z,6.90
2023-12-14T09:20:42.163Z,5.50
2023-12-14T09:21:46.610Z,5.20
2023-12-14T09:22:42.216Z,9.20
2023-12-14T09:23:42.164Z,11.00
2023-12-14T09:24:42.155Z,7.20
2023-12-14T09:25:42.227Z,6.40
2023-12-14T09:26:42.084Z,5.70
2023-12-14T09:27:42.102Z,4.10
2023-12-14T09:28:42.302Z,4.30
2023-12-14T09:29:42.069Z,4.00
2023-12-14T09:30:42.145Z,4.10
2023-12-14T09:31:42.092Z,4.30
2023-12-14T09:32:42.132Z,4.20
2023-12-14T09:33:42.221Z,4.00
2023-12-14T09:34:42.036Z,3.90
2023-12-14T09:35:42.004Z,3.90
2023-12-14T09:36:42.004Z,3.30
2023-12-14T09:37:42.010Z,2.90
2023-12-14T09:38:42.005Z,3.10
2023-12-14T09:39:42.028Z,2.90
2023-12-14T09:40:41.984Z,3.40
2023-12-14T09:41:42.062Z,6.10
2023-12-14T09:42:42.087Z,5.00
2023-12-14T09:43:42.970Z,3.60
2023-12-14T09:44:41.992Z,3.50
2023-12-14T09:45:42.151Z,3.80
2023-12-14T09:46:41.984Z,3.00
2023-12-14T09:47:41.931Z,3.50
2023-12-14T09:48:41.935Z,2.80
2023-12-14T09:49:41.981Z,3.40
2023-12-14T09:50:41.951Z,3.10
2023-12-14T09:51:41.872Z,3.30
2023-12-14T09:52:41.854Z,2.80
2023-12-14T09:53:41.875Z,2.70
2023-12-14T09:54:42.022Z,2.70
2023-12-14T09:55:42.856Z,3.10
2023-12-14T09:56:44.902Z,3.20
2023-12-14T09:57:43.396Z,4.00
2023-12-14T09:58:45.176Z,4.10
2023-12-14T09:59:41.751Z,5.50
2023-12-14T10:00:41.778Z,6.40
2023-12-14T10:01:43.273Z,5.60
2023-12-14T10:02:41.734Z,6.20
2023-12-14T10:03:41.774Z,3.30
2023-12-14T10:04:41.811Z,4.20
2023-12-14T10:05:41.882Z,4.80
2023-12-14T10:06:41.760Z,3.50
2023-12-14T10:07:41.723Z,3.90
2023-12-14T10:08:41.696Z,6.30
2023-12-14T10:09:41.666Z,4.10
2023-12-14T10:10:43.323Z,5.10
2023-12-14T10:11:48.527Z,4.00
2023-12-14T10:12:45.792Z,3.40
2023-12-14T10:17:30.954Z,3.30
2023-12-14T10:26:24.128Z,3.40
2023-12-14T10:27:24.036Z,5.00
2023-12-14T10:28:24.038Z,4.60
2023-12-14T10:58:52.759Z,4.00
2023-12-14T10:59:52.721Z,4.10
2023-12-14T11:00:56.236Z,4.50
2023-12-14T11:01:53.681Z,4.30
2023-12-14T11:02:52.703Z,4.40
2023-12-14T11:03:52.682Z,4.70
2023-12-14T11:04:52.707Z,4.60
2023-12-14T11:05:55.515Z,4.40
2023-12-14T11:06:54.197Z,4.40
2023-12-14T11:07:52.661Z,4.50
2023-12-14T11:19:02.603Z,5.10
2023-12-14T11:28:42.914Z,4.60
2023-12-14T11:29:43.081Z,4.80
2023-12-14T11:30:52.165Z,4.20
2023-12-14T11:31:43.897Z,4.20
2023-12-14T11:32:42.879Z,4.00
2023-12-14T11:33:44.527Z,3.80
2023-12-14T11:34:42.904Z,3.70
2023-12-14T11:35:42.865Z,3.80
2023-12-14T11:36:42.866Z,3.50
2023-12-14T11:37:42.811Z,3.90
2023-12-14T11:38:42.797Z,4.20
2023-12-14T11:39:43.362Z,4.20
2023-12-14T11:40:51.621Z,3.90
2023-12-14T11:41:45.440Z,3.70
2023-12-14T11:44:09.215Z,3.30
2023-12-14T11:45:09.297Z,3.60
2023-12-14T11:46:09.188Z,3.80
2023-12-14T11:47:09.230Z,3.10
2023-12-14T11:48:09.261Z,3.30
2023-12-14T11:49:09.238Z,3.50
2023-12-14T11:50:09.186Z,3.00
2023-12-14T11:51:09.188Z,3.10
2023-12-14T11:52:09.116Z,3.50
2023-12-14T11:53:09.294Z,3.30
2023-12-14T11:54:09.113Z,2.60
2023-12-14T11:55:09.105Z,3.00
2023-12-14T11:56:09.157Z,3.50
2023-12-14T11:57:09.076Z,5.40
2023-12-14T11:58:09.056Z,3.30
2023-12-14T11:59:09.083Z,3.20
2023-12-14T12:00:09.045Z,3.40
2023-12-14T12:01:09.050Z,3.90
2023-12-14T12:02:09.042Z,3.90
2023-12-14T12:03:09.045Z,3.80
2023-12-14T12:04:09.025Z,3.30
2023-12-14T12:05:09.081Z,4.00
2023-12-14T12:06:09.139Z,4.70
2023-12-14T12:07:09.002Z,3.70
2023-12-14T12:08:08.986Z,3.10
2023-12-14T12:09:08.949Z,3.60
2023-12-14T12:10:08.955Z,4.10
2023-12-14T12:11:08.943Z,4.20
2023-12-14T12:12:08.990Z,3.90
2023-12-14T12:13:08.910Z,3.50
2023-12-14T12:14:08.927Z,4.10
2023-12-14T12:15:08.900Z,4.80
2023-12-14T12:16:08.873Z,4.00
2023-12-14T12:17:08.967Z,4.20
2023-12-14T12:18:08.930Z,4.20
2023-12-14T12:19:08.859Z,3.80
2023-12-14T12:20:08.877Z,4.30
2023-12-14T12:21:08.822Z,4.40
2023-12-14T12:22:08.837Z,4.70
2023-12-14T12:23:08.919Z,4.40
2023-12-14T12:24:18.555Z,5.30
2023-12-14T12:25:15.483Z,5.00
2023-12-14T12:26:09.825Z,5.30
2023-12-14T12:27:08.767Z,5.70
2023-12-14T12:28:08.781Z,5.30
2023-12-14T12:29:08.782Z,5.10
2023-12-14T12:30:08.760Z,5.00
2023-12-14T12:31:08.838Z,6.20
2023-12-14T12:32:08.751Z,6.90
2023-12-14T12:33:08.766Z,13.40
2023-12-14T12:34:08.738Z,10.90
2023-12-14T12:35:08.728Z,14.20
2023-12-14T12:36:08.756Z,15.50
2023-12-14T12:37:08.666Z,11.10
2023-12-14T12:38:08.722Z,8.20
2023-12-14T12:39:08.667Z,8.20
2023-12-14T12:40:08.617Z,7.30
2023-12-14T12:41:08.629Z,7.50
2023-12-14T12:42:08.603Z,7.40
2023-12-14T12:43:08.609Z,7.80
2023-12-14T12:44:08.611Z,6.60
2023-12-14T12:45:08.571Z,7.30
2023-12-14T12:46:08.609Z,6.00
2023-12-14T12:47:11.406Z,5.90
2023-12-14T12:48:08.967Z,6.20
2023-12-14T12:49:08.604Z,6.50
2023-12-14T12:50:08.592Z,6.80
2023-12-14T12:51:08.509Z,6.20
2023-12-14T12:52:08.509Z,6.60
2023-12-14T12:53:08.516Z,6.50
2023-12-14T12:54:12.931Z,6.90
2023-12-14T12:55:09.468Z,6.00
2023-12-14T12:56:08.494Z,6.10
2023-12-14T12:57:08.457Z,6.70
2023-12-14T12:58:08.435Z,6.50
2023-12-14T12:59:09.954Z,6.10
2023-12-14T13:00:08.411Z,6.40
2023-12-14T13:01:08.430Z,6.10
2023-12-14T13:02:08.420Z,6.40
2023-12-14T13:03:08.412Z,6.20
2023-12-14T13:04:08.371Z,6.10
2023-12-14T13:05:08.465Z,6.10
2023-12-14T13:06:08.430Z,6.10
2023-12-14T13:07:08.351Z,6.70
2023-12-14T13:08:08.379Z,7.30
2023-12-14T13:09:08.324Z,6.10
2023-12-14T13:10:16.029Z,6.30
2023-12-14T13:11:09.333Z,6.50
2023-12-14T13:12:08.301Z,6.50
2023-12-14T13:13:08.298Z,7.20
2023-12-14T13:14:08.285Z,6.80
2023-12-14T13:15:08.257Z,7.40
2023-12-14T13:16:08.298Z,6.70
2023-12-14T13:17:08.320Z,6.70
2023-12-14T13:18:08.325Z,6.10
2023-12-14T13:19:08.263Z,5.40
2023-12-14T13:20:08.313Z,6.00
2023-12-14T13:21:08.213Z,5.50
2023-12-14T13:22:08.242Z,6.40
2023-12-14T13:23:08.267Z,6.30
2023-12-14T13:24:08.249Z,6.10
2023-12-14T13:25:08.222Z,6.20
2023-12-14T13:26:08.287Z,6.00
2023-12-14T13:27:08.148Z,6.10
2023-12-14T13:28:08.130Z,6.20
2023-12-14T13:29:08.222Z,6.40
2023-12-14T13:30:08.118Z,5.70
2023-12-14T13:31:08.163Z,6.00
2023-12-14T13:32:08.110Z,6.10
2023-12-14T13:33:08.204Z,6.50
2023-12-14T13:34:09.645Z,6.00
2023-12-14T13:35:09.185Z,6.50
2023-12-14T13:36:08.096Z,6.30
2023-12-14T13:37:08.041Z,6.80
2023-12-14T13:38:08.045Z,6.80
2023-12-14T13:39:08.025Z,6.60
2023-12-14T13:40:08.854Z,6.50
2023-12-14T13:41:08.028Z,6.60
2023-12-14T13:42:08.014Z,6.40
2023-12-14T13:43:08.178Z,5.80
2023-12-14T13:44:07.996Z,6.20
2023-12-14T13:45:07.948Z,6.50
2023-12-14T13:46:18.114Z,6.60
2023-12-14T13:47:09.066Z,7.30
2023-12-14T13:48:08.008Z,7.10
2023-12-14T13:49:08.040Z,7.00
2023-12-14T13:50:07.957Z,7.50
2023-12-14T13:51:07.897Z,6.90
2023-12-14T13:52:07.882Z,7.70
2023-12-14T13:53:26.932Z,7.40
2023-12-14T13:56:16.552Z,8.40
2023-12-14T13:57:16.549Z,8.10
2023-12-14T13:58:16.522Z,8.10
2023-12-14T13:59:16.609Z,8.70
2023-12-14T14:01:42.978Z,9.50
2023-12-14T14:02:42.952Z,8.90
2023-12-14T14:03:43.077Z,9.10
2023-12-14T14:04:42.965Z,7.60
2023-12-14T14:06:43.923Z,8.00
2023-12-14T14:07:42.915Z,8.60
2023-12-14T14:08:42.909Z,7.80
2023-12-14T14:09:42.865Z,8.20
2023-12-14T14:10:42.903Z,8.50